PBC weather

Hermanos Serdán International Airport
Puebla, Puebla, Mexico

Public forecast

Using degrees Celsius for public forecast. Weather courtesy of forecast.io.

METAR (pilot weather report)

Retrieved 2019/04/19 15:43 UTC (12 minutes ago):

MMPB 191543Z 35011KT 11SM SCT025 OVC100 15/02 A3039 RMK 8/57/ BINOVC

TAF (pilot weather forecast)

Forecast is more than 6 hours old.

Retrieved 2019/04/19 06:38 UTC (9 hours ago):

TAF MMPB 190434Z 1906/2006 03005KT P6SM SCT020 FM191600 18010KT P6SM SCT020 FM200200 13005KT P6SM SCT020